createdAt,value
2022-12-17T00:01:46.057Z,97481.13
2022-12-17T00:04:31.646Z,97489.31
2022-12-17T00:07:17.289Z,97490.28
2022-12-17T00:10:02.823Z,97486.00
2022-12-17T00:12:48.498Z,97486.41
2022-12-17T00:15:34.096Z,97484.19
2022-12-17T00:18:23.692Z,97478.87
2022-12-17T00:21:13.749Z,97460.44
2022-12-17T00:23:59.434Z,97446.94
2022-12-17T00:26:45.014Z,97431.81
2022-12-17T00:29:30.455Z,97433.41
2022-12-17T00:32:16.063Z,97443.25
2022-12-17T00:35:01.538Z,97423.94
2022-12-17T00:37:47.127Z,97418.25
2022-12-17T00:40:32.759Z,97419.84
2022-12-17T00:43:24.288Z,97419.31
2022-12-17T00:46:10.265Z,97421.44
2022-12-17T00:48:56.019Z,97426.41
2022-12-17T00:51:42.705Z,97466.06
2022-12-17T00:54:27.941Z,97490.12
2022-12-17T00:57:13.523Z,97536.34
2022-12-17T00:59:58.963Z,97560.31
2022-12-17T01:02:45.209Z,97581.69
2022-12-17T01:05:31.350Z,97568.03
2022-12-17T01:08:25.130Z,97562.00
2022-12-17T01:11:10.501Z,97579.56
2022-12-17T01:13:56.586Z,97584.84
2022-12-17T01:16:42.247Z,97602.06
2022-12-17T01:19:27.985Z,97591.94
2022-12-17T01:22:13.682Z,97602.59
2022-12-17T01:24:59.231Z,97598.69
2022-12-17T01:27:44.942Z,97598.50
2022-12-17T01:30:30.336Z,97585.06
2022-12-17T01:33:23.044Z,97576.66
2022-12-17T01:36:08.758Z,97572.75
2022-12-17T01:38:54.332Z,97598.56
2022-12-17T01:41:39.876Z,97615.59
2022-12-17T01:45:02.422Z,97597.09
2022-12-17T01:47:51.873Z,97599.69
2022-12-17T01:50:37.852Z,97613.91
2022-12-17T01:53:24.963Z,97600.66
2022-12-17T01:56:10.656Z,97603.94
2022-12-17T01:58:56.029Z,97607.37
2022-12-17T02:01:41.357Z,97615.28
2022-12-17T02:04:40.925Z,97605.13
2022-12-17T02:07:44.785Z,97583.16
2022-12-17T02:10:39.135Z,97588.12
2022-12-17T02:13:40.221Z,97604.88
2022-12-17T02:16:35.064Z,97606.63
2022-12-17T02:19:34.882Z,97609.97
2022-12-17T02:22:26.712Z,97618.59
2022-12-17T02:25:19.013Z,97631.78
2022-12-17T02:28:04.371Z,97607.75
2022-12-17T02:30:50.738Z,97618.22
2022-12-17T02:33:36.439Z,97630.91
2022-12-17T02:36:24.666Z,97632.19
2022-12-17T02:39:09.701Z,97622.03
2022-12-17T02:42:08.371Z,97629.19
2022-12-17T02:44:53.729Z,97623.53
2022-12-17T02:47:41.694Z,97631.37
2022-12-17T02:50:27.344Z,97631.00
2022-12-17T02:53:13.119Z,97643.22
2022-12-17T02:55:58.679Z,97648.47
2022-12-17T02:58:44.159Z,97653.03
2022-12-17T03:01:29.885Z,97667.38
2022-12-17T03:04:15.392Z,97655.50
2022-12-17T03:07:01.050Z,97662.19
2022-12-17T03:09:46.604Z,97657.50
2022-12-17T03:12:32.110Z,97651.75
2022-12-17T03:15:17.877Z,97668.84
2022-12-17T03:18:03.428Z,97678.81
2022-12-17T03:20:48.689Z,97687.53
2022-12-17T03:23:34.847Z,97680.62
2022-12-17T03:26:21.677Z,97675.13
2022-12-17T03:29:07.942Z,97677.19
2022-12-17T03:31:53.912Z,97679.31
2022-12-17T03:34:39.475Z,97681.81
2022-12-17T03:37:25.196Z,97684.84
2022-12-17T03:40:10.760Z,97674.03
2022-12-17T03:42:56.405Z,97684.56
2022-12-17T03:45:42.143Z,97680.56
2022-12-17T03:48:30.222Z,97697.16
2022-12-17T03:51:15.861Z,97693.19
2022-12-17T03:54:01.427Z,97706.19
2022-12-17T03:56:47.376Z,97724.00
2022-12-17T03:59:33.080Z,97713.09
2022-12-17T04:02:18.815Z,97713.97
2022-12-17T04:05:04.356Z,97714.78
2022-12-17T04:07:49.767Z,97721.63
2022-12-17T04:10:35.256Z,97720.44
2022-12-17T04:13:20.852Z,97723.84
2022-12-17T04:16:06.385Z,97721.16
2022-12-17T04:18:52.043Z,97723.56
2022-12-17T04:21:37.556Z,97730.75
2022-12-17T04:24:23.081Z,97728.44
2022-12-17T04:27:08.759Z,97726.94
2022-12-17T04:29:55.307Z,97732.59
2022-12-17T04:32:40.834Z,97723.28
2022-12-17T04:35:26.362Z,97734.47
2022-12-17T04:38:11.904Z,97733.75
2022-12-17T04:40:57.590Z,97737.00
2022-12-17T04:43:43.117Z,97734.44
2022-12-17T04:46:28.890Z,97731.13
2022-12-17T04:49:14.538Z,97742.50
2022-12-17T04:52:00.082Z,97749.09
2022-12-17T04:54:45.778Z,97756.44
2022-12-17T04:57:31.240Z,97766.44
2022-12-17T05:00:16.870Z,97770.19
2022-12-17T05:03:02.653Z,97775.78
2022-12-17T05:05:47.983Z,97782.34
2022-12-17T05:08:36.900Z,97797.31
2022-12-17T05:11:26.824Z,97794.22
2022-12-17T05:14:12.370Z,97798.50
2022-12-17T05:16:57.950Z,97813.25
2022-12-17T05:19:43.711Z,97813.25
2022-12-17T05:22:29.177Z,97815.44
2022-12-17T05:25:14.715Z,97830.22
2022-12-17T05:28:00.151Z,97836.25
2022-12-17T05:30:45.790Z,97819.75
2022-12-17T05:33:31.394Z,97851.72
2022-12-17T05:36:18.925Z,97859.84
2022-12-17T05:39:04.549Z,97837.00
2022-12-17T05:41:50.155Z,97845.59
2022-12-17T05:44:35.691Z,97859.47
2022-12-17T05:47:21.275Z,97852.69
2022-12-17T05:50:06.791Z,97847.47
2022-12-17T05:52:52.507Z,97868.66
2022-12-17T05:55:38.126Z,97855.34
2022-12-17T05:58:25.255Z,97855.75
2022-12-17T06:01:18.007Z,97850.53
2022-12-17T06:04:03.812Z,97855.91
2022-12-17T06:06:49.528Z,97865.03
2022-12-17T06:09:34.836Z,97852.03
2022-12-17T06:12:20.928Z,97857.50
2022-12-17T06:15:06.185Z,97851.91
2022-12-17T06:17:51.838Z,97853.72
2022-12-17T06:20:37.902Z,97863.50
2022-12-17T06:23:25.369Z,97847.44
2022-12-17T06:26:14.941Z,97882.19
2022-12-17T06:29:01.321Z,97875.84
2022-12-17T06:31:46.889Z,97887.22
2022-12-17T06:34:32.531Z,97892.47
2022-12-17T06:37:17.863Z,97903.25
2022-12-17T06:40:03.318Z,97900.56
2022-12-17T06:42:48.927Z,97893.94
2022-12-17T06:45:34.445Z,97889.78
2022-12-17T06:48:23.512Z,97890.28
2022-12-17T06:51:09.187Z,97903.22
2022-12-17T06:53:54.743Z,97922.94
2022-12-17T06:56:40.430Z,97924.44
2022-12-17T06:59:26.078Z,97925.16
2022-12-17T07:02:11.697Z,97929.38
2022-12-17T07:04:57.299Z,97951.97
2022-12-17T07:07:42.818Z,97958.06
2022-12-17T07:10:28.451Z,97942.53
2022-12-17T07:13:13.983Z,97948.25
2022-12-17T07:15:59.578Z,97967.09
2022-12-17T07:18:45.143Z,97975.06
2022-12-17T07:21:30.703Z,97971.91
2022-12-17T07:24:16.279Z,97975.88
2022-12-17T07:27:01.795Z,97994.34
2022-12-17T07:29:47.352Z,97982.72
2022-12-17T07:32:32.932Z,97989.28
2022-12-17T07:35:18.441Z,98001.31
2022-12-17T07:38:04.013Z,97990.38
2022-12-17T07:40:49.607Z,97994.16
2022-12-17T07:43:35.405Z,97994.59
2022-12-17T07:46:21.216Z,98004.06
2022-12-17T07:49:06.735Z,98005.78
2022-12-17T07:51:52.419Z,98013.28
2022-12-17T07:54:38.012Z,98005.81
2022-12-17T07:57:23.425Z,98028.41
2022-12-17T08:00:09.205Z,98025.19
2022-12-17T08:03:05.562Z,98037.69
2022-12-17T08:05:51.241Z,98011.56
2022-12-17T08:08:36.673Z,98017.09
2022-12-17T08:11:22.296Z,98026.78
2022-12-17T08:14:07.860Z,98001.91
2022-12-17T08:16:53.420Z,98025.34
2022-12-17T08:19:39.524Z,98020.00
2022-12-17T08:22:25.075Z,98045.19
2022-12-17T08:25:10.772Z,98040.38
2022-12-17T08:27:56.356Z,98048.84
2022-12-17T08:30:42.746Z,98054.66
2022-12-17T08:33:41.997Z,98062.91
2022-12-17T08:36:28.039Z,98040.69
2022-12-17T08:39:24.363Z,98068.47
2022-12-17T08:42:09.930Z,98069.06
2022-12-17T08:44:55.580Z,98075.19
2022-12-17T08:47:42.753Z,98076.16
2022-12-17T08:50:28.407Z,98080.28
2022-12-17T08:53:21.448Z,98091.38
2022-12-17T08:56:07.045Z,98092.91
2022-12-17T08:58:58.679Z,98087.28
2022-12-17T09:01:44.612Z,98115.25
2022-12-17T09:04:30.065Z,98108.25
2022-12-17T09:07:15.723Z,98110.00
2022-12-17T09:10:01.040Z,98112.97
2022-12-17T09:12:46.725Z,98123.69
2022-12-17T09:15:32.266Z,98120.94
2022-12-17T09:18:17.835Z,98137.31
2022-12-17T09:21:03.326Z,98127.16
2022-12-17T09:23:48.591Z,98124.78
2022-12-17T09:26:34.186Z,98134.34
2022-12-17T09:29:19.833Z,98141.72
2022-12-17T09:32:05.227Z,98126.94
2022-12-17T09:34:50.680Z,98142.47
2022-12-17T09:37:36.314Z,98150.88
2022-12-17T09:40:21.883Z,98159.69
2022-12-17T09:43:22.122Z,98159.31
2022-12-17T09:46:47.493Z,98175.84
2022-12-17T09:49:45.125Z,98163.28
2022-12-17T09:52:38.118Z,98192.94
2022-12-17T09:55:39.891Z,98191.59
2022-12-17T09:58:25.754Z,98194.28
2022-12-17T10:01:11.525Z,98187.25
2022-12-17T10:04:04.828Z,98173.75
2022-12-17T10:06:50.000Z,98177.56
2022-12-17T10:09:37.135Z,98180.97
2022-12-17T10:12:35.498Z,98172.69
2022-12-17T10:15:21.552Z,98184.34
2022-12-17T10:18:07.118Z,98181.06
2022-12-17T10:20:57.372Z,98184.78
2022-12-17T10:23:47.411Z,98189.94
2022-12-17T10:26:47.164Z,98205.81
2022-12-17T10:29:47.069Z,98212.34
2022-12-17T10:32:33.532Z,98220.31
2022-12-17T10:35:20.211Z,98207.06
2022-12-17T10:38:05.425Z,98248.97
2022-12-17T10:40:52.243Z,98223.31
2022-12-17T10:43:58.476Z,98238.81
2022-12-17T10:46:47.852Z,98231.91
2022-12-17T10:49:38.869Z,98230.91
2022-12-17T10:52:34.058Z,98238.53
2022-12-17T10:55:22.331Z,98251.16
2022-12-17T10:58:09.493Z,98247.06
2022-12-17T11:01:03.813Z,98252.78
2022-12-17T11:03:55.015Z,98258.53
2022-12-17T11:06:49.300Z,98264.72
2022-12-17T11:09:55.846Z,98269.47
2022-12-17T11:12:46.458Z,98266.97
2022-12-17T11:15:51.757Z,98277.16
2022-12-17T11:18:42.055Z,98285.72
2022-12-17T11:21:40.326Z,98307.78
2022-12-17T11:24:32.471Z,98304.94
2022-12-17T11:27:18.274Z,98310.47
2022-12-17T11:30:04.108Z,98343.84
2022-12-17T11:33:04.161Z,98347.16
2022-12-17T11:35:58.624Z,98348.25
2022-12-17T11:38:51.632Z,98345.59
2022-12-17T11:41:42.480Z,98347.94
2022-12-17T11:45:18.495Z,98349.25
2022-12-17T11:48:12.383Z,98327.19
2022-12-17T11:51:15.593Z,98342.50
2022-12-17T11:54:20.109Z,98342.41
2022-12-17T11:57:20.170Z,98340.78
2022-12-17T12:00:20.658Z,98336.81
2022-12-17T12:03:54.136Z,98350.97
2022-12-17T12:06:53.519Z,98360.88
2022-12-17T12:10:07.011Z,98364.66
2022-12-17T12:13:01.737Z,98372.25
2022-12-17T12:16:13.544Z,98381.34
2022-12-17T12:19:14.055Z,98373.47
2022-12-17T12:22:07.788Z,98373.00
2022-12-17T12:25:00.931Z,98365.62
2022-12-17T12:28:39.117Z,98385.28
2022-12-17T12:31:36.272Z,98391.47
2022-12-17T12:34:31.728Z,98396.12
2022-12-17T12:37:19.667Z,98399.19
2022-12-17T12:40:10.997Z,98387.22
2022-12-17T12:43:07.438Z,98386.94
2022-12-17T12:46:01.847Z,98378.31
2022-12-17T12:49:03.973Z,98398.00
2022-12-17T12:51:53.328Z,98397.81
2022-12-17T12:54:46.175Z,98411.31
2022-12-17T12:57:47.788Z,98414.47
2022-12-17T13:01:10.303Z,98401.47
2022-12-17T13:04:04.495Z,98404.72
2022-12-17T13:06:54.363Z,98424.63
2022-12-17T13:09:30.893Z,98423.53
2022-12-17T13:12:04.955Z,98432.72
2022-12-17T13:14:51.339Z,98444.94
2022-12-17T13:17:18.133Z,98444.88
2022-12-17T13:20:07.803Z,98453.41
2022-12-17T13:22:34.776Z,98449.16
2022-12-17T13:25:17.734Z,98464.16
2022-12-17T13:27:44.699Z,98442.53
2022-12-17T13:30:17.562Z,98430.84
2022-12-17T13:33:21.301Z,98439.31
2022-12-17T13:36:09.375Z,98420.84
2022-12-17T13:38:55.057Z,98433.50
2022-12-17T13:41:28.340Z,98433.50
2022-12-17T13:43:59.415Z,98457.22
2022-12-17T13:46:36.513Z,98454.47
2022-12-17T13:49:05.196Z,98454.69
2022-12-17T13:51:34.987Z,98445.38
2022-12-17T13:54:04.087Z,98443.63
2022-12-17T13:56:31.917Z,98458.12
2022-12-17T13:59:08.000Z,98453.13
2022-12-17T14:01:45.356Z,98456.56
2022-12-17T14:04:20.929Z,98457.25
2022-12-17T14:06:47.893Z,98459.84
2022-12-17T14:09:17.554Z,98455.69
2022-12-17T14:12:03.232Z,98480.25
2022-12-17T14:14:35.056Z,98477.75
2022-12-17T14:17:02.119Z,98482.72
2022-12-17T14:19:29.574Z,98476.06
2022-12-17T14:21:56.802Z,98515.03
2022-12-17T14:24:27.312Z,98535.41
2022-12-17T14:26:56.557Z,98537.06
2022-12-17T14:29:31.285Z,98555.75
2022-12-17T14:32:02.197Z,98571.03
2022-12-17T14:34:30.200Z,98572.72
2022-12-17T14:36:58.997Z,98587.16
2022-12-17T14:39:29.005Z,98582.87
2022-12-17T14:42:16.657Z,98585.44
2022-12-17T14:45:06.452Z,98604.97
2022-12-17T14:47:35.136Z,98606.66
2022-12-17T14:50:07.260Z,98599.88
2022-12-17T14:52:44.122Z,98586.31
2022-12-17T14:55:31.586Z,98597.31
2022-12-17T14:58:13.765Z,98616.84
2022-12-17T15:00:44.932Z,98620.25
2022-12-17T15:03:19.747Z,98640.53
2022-12-17T15:05:57.155Z,98640.59
2022-12-17T15:08:24.024Z,98647.19
2022-12-17T15:10:50.925Z,98668.41
2022-12-17T15:13:17.584Z,98658.44
2022-12-17T15:15:44.468Z,98652.34
2022-12-17T15:18:11.197Z,98665.88
2022-12-17T15:20:38.143Z,98657.44
2022-12-17T15:23:05.009Z,98681.13
2022-12-17T15:25:31.647Z,98698.16
2022-12-17T15:27:58.495Z,98694.81
2022-12-17T15:30:25.251Z,98712.66
2022-12-17T15:32:52.106Z,98709.19
2022-12-17T15:35:18.903Z,98711.00
2022-12-17T15:37:45.730Z,98702.38
2022-12-17T15:40:12.513Z,98717.66
2022-12-17T15:43:01.655Z,98713.53
2022-12-17T15:45:32.833Z,98709.16
2022-12-17T15:47:59.524Z,98719.38
2022-12-17T15:50:26.659Z,98727.06
2022-12-17T15:52:53.520Z,98721.81
2022-12-17T15:55:20.221Z,98729.28
2022-12-17T15:57:47.075Z,98737.31
2022-12-17T16:00:13.993Z,98740.56
2022-12-17T16:02:41.011Z,98749.88
2022-12-17T16:05:08.542Z,98755.16
2022-12-17T16:07:35.595Z,98761.03
2022-12-17T16:10:05.335Z,98755.91
2022-12-17T16:12:32.976Z,98763.56
2022-12-17T16:14:59.812Z,98767.88
2022-12-17T16:17:26.475Z,98772.91
2022-12-17T16:19:53.351Z,98782.34
2022-12-17T16:22:19.990Z,98783.19
2022-12-17T16:24:47.169Z,98782.25
2022-12-17T16:27:14.719Z,98786.38
2022-12-17T16:29:41.614Z,98796.53
2022-12-17T16:32:08.255Z,98788.19
2022-12-17T16:34:35.238Z,98794.97
2022-12-17T16:37:02.085Z,98799.25
2022-12-17T16:39:29.137Z,98796.63
2022-12-17T16:41:56.017Z,98796.56
2022-12-17T16:44:22.690Z,98802.31
2022-12-17T16:46:49.712Z,98805.97
2022-12-17T16:49:23.664Z,98806.13
2022-12-17T16:51:52.095Z,98810.91
2022-12-17T16:54:24.401Z,98812.63
2022-12-17T16:56:51.447Z,98820.03
2022-12-17T16:59:18.943Z,98831.31
2022-12-17T17:01:48.369Z,98840.09
2022-12-17T17:04:16.717Z,98835.94
2022-12-17T17:06:49.521Z,98845.22
2022-12-17T17:09:16.869Z,98835.72
2022-12-17T17:11:48.142Z,98848.63
2022-12-17T17:14:18.019Z,98856.25
2022-12-17T17:16:44.884Z,98852.69
2022-12-17T17:19:11.834Z,98863.94
2022-12-17T17:21:40.683Z,98863.06
2022-12-17T17:24:16.748Z,98865.59
2022-12-17T17:26:45.467Z,98870.69
2022-12-17T17:29:12.178Z,98862.97
2022-12-17T17:34:25.993Z,98881.84
2022-12-17T17:36:52.664Z,98873.22
2022-12-17T17:39:19.518Z,98867.91
2022-12-17T17:41:46.433Z,98885.97
2022-12-17T17:44:13.464Z,98882.44
2022-12-17T17:46:40.909Z,98900.03
2022-12-17T17:49:08.849Z,98904.53
2022-12-17T17:54:25.108Z,98903.47
2022-12-17T17:56:51.924Z,98902.22
2022-12-17T17:59:19.593Z,98910.44
2022-12-17T18:01:49.655Z,98904.09
2022-12-17T18:04:21.628Z,98900.84
2022-12-17T18:07:23.068Z,98912.09
2022-12-17T18:09:35.551Z,98910.34
2022-12-17T18:12:22.410Z,98922.41
2022-12-17T18:15:12.435Z,98931.69
2022-12-17T18:17:36.049Z,98932.28
2022-12-17T18:20:02.822Z,98934.25
2022-12-17T18:22:29.653Z,98934.66
2022-12-17T18:24:56.266Z,98935.81
2022-12-17T18:27:23.099Z,98947.59
2022-12-17T18:29:49.782Z,98952.88
2022-12-17T18:32:16.679Z,98956.47
2022-12-17T18:34:43.708Z,98961.06
2022-12-17T18:37:10.646Z,98965.78
2022-12-17T18:39:37.497Z,98965.66
2022-12-17T18:42:22.829Z,98976.91
2022-12-17T18:44:49.685Z,98983.00
2022-12-17T18:47:16.768Z,98990.56
2022-12-17T18:49:43.646Z,98993.72
2022-12-17T18:52:16.236Z,98998.66
2022-12-17T18:54:43.893Z,99000.09
2022-12-17T18:57:10.756Z,99002.09
2022-12-17T18:59:38.632Z,99006.78
2022-12-17T19:02:05.625Z,99009.22
2022-12-17T19:04:33.202Z,99017.78
2022-12-17T19:07:00.154Z,99014.75
2022-12-17T19:09:31.376Z,98996.69
2022-12-17T19:11:58.378Z,99000.22
2022-12-17T19:14:25.924Z,98995.87
2022-12-17T19:16:54.784Z,99005.19
2022-12-17T19:19:22.691Z,99000.97
2022-12-17T19:21:49.980Z,99014.34
2022-12-17T19:24:18.583Z,99027.72
2022-12-17T19:26:45.936Z,99022.22
2022-12-17T19:29:14.108Z,99009.25
2022-12-17T19:31:41.063Z,99034.00
2022-12-17T19:34:11.370Z,99038.75
2022-12-17T19:36:39.013Z,99036.25
2022-12-17T19:39:08.001Z,99038.28
2022-12-17T19:41:35.210Z,99045.81
2022-12-17T19:44:07.171Z,99046.81
2022-12-17T19:46:35.229Z,99051.28
2022-12-17T19:49:02.547Z,99055.16
2022-12-17T19:51:30.769Z,99062.22
2022-12-17T19:54:01.793Z,99060.38
2022-12-17T19:56:33.609Z,99070.22
2022-12-17T19:59:03.345Z,99074.84
2022-12-17T20:01:36.797Z,99076.69
2022-12-17T20:04:04.607Z,99087.63
2022-12-17T20:06:33.391Z,99098.25
2022-12-17T20:09:00.981Z,99097.69
2022-12-17T20:11:34.204Z,99099.06
2022-12-17T20:14:17.942Z,99105.75
2022-12-17T20:16:53.322Z,99099.78
2022-12-17T20:19:22.548Z,99107.22
2022-12-17T20:21:49.600Z,99100.41
2022-12-17T20:24:17.327Z,99117.22
2022-12-17T20:26:45.308Z,99114.06
2022-12-17T20:29:12.428Z,99117.25
2022-12-17T20:31:39.921Z,99128.38
2022-12-17T20:34:08.773Z,99133.19
2022-12-17T20:36:36.211Z,99129.69
2022-12-17T20:39:03.620Z,99138.09
2022-12-17T20:41:31.632Z,99137.94
2022-12-17T20:43:59.118Z,99140.63
2022-12-17T20:46:26.096Z,99145.00
2022-12-17T20:48:53.629Z,99147.41
2022-12-17T20:51:23.593Z,99151.38
2022-12-17T20:53:52.162Z,99155.75
2022-12-17T20:56:21.759Z,99158.56
2022-12-17T20:58:53.082Z,99155.31
2022-12-17T21:01:22.016Z,99158.47
2022-12-17T21:03:50.651Z,99168.59
2022-12-17T21:06:22.152Z,99161.34
2022-12-17T21:08:51.655Z,99168.59
2022-12-17T21:11:20.499Z,99174.84
2022-12-17T21:13:47.416Z,99186.44
2022-12-17T21:16:19.120Z,99172.56
2022-12-17T21:18:46.051Z,99176.09
2022-12-17T21:21:14.447Z,99186.53
2022-12-17T21:23:41.536Z,99189.81
2022-12-17T21:26:12.197Z,99198.44
2022-12-17T21:28:41.619Z,99199.41
2022-12-17T21:31:24.709Z,99206.69
2022-12-17T21:33:54.219Z,99205.50
2022-12-17T21:36:22.434Z,99192.56
2022-12-17T21:38:49.717Z,99193.03
2022-12-17T21:41:21.920Z,99196.66
2022-12-17T21:43:53.242Z,99196.88
2022-12-17T21:46:20.262Z,99205.38
2022-12-17T21:48:47.581Z,99199.31
2022-12-17T21:51:15.285Z,99200.94
2022-12-17T21:53:43.781Z,99204.12
2022-12-17T21:56:16.647Z,99205.00
2022-12-17T21:58:44.963Z,99214.69
2022-12-17T22:01:23.830Z,99219.62
2022-12-17T22:03:54.128Z,99204.44
2022-12-17T22:06:23.945Z,99209.75
2022-12-17T22:08:52.768Z,99205.22
2022-12-17T22:11:25.909Z,99210.19
2022-12-17T22:14:18.979Z,99214.84
2022-12-17T22:16:49.719Z,99218.56
2022-12-17T22:19:22.517Z,99223.81
2022-12-17T22:21:51.067Z,99220.47
2022-12-17T22:24:23.069Z,99228.91
2022-12-17T22:26:49.894Z,99227.53
2022-12-17T22:29:36.660Z,99233.84
2022-12-17T22:32:22.410Z,99235.53
2022-12-17T22:35:20.852Z,99243.38
2022-12-17T22:40:48.119Z,99238.72
2022-12-17T22:44:24.445Z,99240.44
2022-12-17T22:44:41.789Z,99236.56
2022-12-17T22:46:17.186Z,99244.09
2022-12-17T22:48:44.641Z,99256.91
2022-12-17T22:51:12.846Z,99254.37
2022-12-17T22:53:43.262Z,99257.75
2022-12-17T22:56:20.053Z,99253.50
2022-12-17T22:58:57.831Z,99254.63
2022-12-17T23:01:24.847Z,99267.22
2022-12-17T23:03:55.929Z,99262.13
2022-12-17T23:06:23.312Z,99258.22
2022-12-17T23:08:50.469Z,99270.44
2022-12-17T23:11:24.072Z,99258.06
2022-12-17T23:13:51.860Z,99266.63
2022-12-17T23:16:19.848Z,99273.53
2022-12-17T23:18:48.227Z,99267.34
2022-12-17T23:21:20.661Z,99275.66
2022-12-17T23:23:47.527Z,99274.78
2022-12-17T23:26:18.246Z,99278.84
2022-12-17T23:28:45.698Z,99287.91
2022-12-17T23:31:17.819Z,99298.97
2022-12-17T23:33:45.394Z,99297.28
2022-12-17T23:36:14.983Z,99287.53
2022-12-17T23:38:42.344Z,99293.09
2022-12-17T23:41:11.915Z,99295.06
2022-12-17T23:43:40.007Z,99306.53
2022-12-17T23:46:08.233Z,99309.00
2022-12-17T23:48:42.016Z,99307.34
2022-12-17T23:51:12.163Z,99309.72
2022-12-17T23:53:39.560Z,99317.34
2022-12-17T23:56:12.442Z,99309.53
2022-12-17T23:58:41.604Z,99316.78
